Time;durP1;ratioP1;P1;durP2;ratioP2;P2;SDS_P1;SDS_P2;PMS_P1;PMS_P2;Temp;Humidity;BMP_temperature;BMP_pressure;BME280_temperature;BME280_humidity;BME280_pressure;Samples;Min_cycle;Max_cycle;Signal;HPM_P1;HPM_P2
2023/02/17 00:01:13;;;;;;;27.00;13.80;;;;;;;0.45;66.83;100394.13;105662;1260;65596;-75
2023/02/17 00:03:47;;;;;;;25.30;13.90;;;;;;;0.44;66.85;100393.11;105775;1254;59683;-74
2023/02/17 00:06:16;;;;;;;22.70;12.20;;;;;;;0.41;66.81;100392.03;105698;1254;59689;-73
2023/02/17 00:08:45;;;;;;;21.50;12.00;;;;;;;0.38;66.87;100389.36;105747;1254;65034;-74
2023/02/17 00:11:12;;;;;;;22.90;12.90;;;;;;;0.35;66.91;100383.92;105603;1260;59856;-74
2023/02/17 00:13:39;;;;;;;28.30;13.90;;;;;;;0.32;66.93;100379.88;105788;1254;65545;-73
2023/02/17 00:16:08;;;;;;;23.70;13.40;;;;;;;0.30;66.95;100374.59;105631;1259;59717;-73
2023/02/17 00:18:35;;;;;;;27.50;15.10;;;;;;;0.27;66.99;100371.39;105926;1254;59993;-73
2023/02/17 00:21:16;;;;;;;25.30;14.20;;;;;;;0.24;67.01;100368.58;105791;1254;64645;-71
2023/02/17 00:23:45;;;;;;;23.40;13.90;;;;;;;0.22;67.03;100367.62;105701;1259;59674;-70
2023/02/17 00:26:17;;;;;;;21.30;12.70;;;;;;;0.19;66.99;100365.13;105641;1254;65335;-69
2023/02/17 00:28:44;;;;;;;21.20;12.80;;;;;;;0.18;67.05;100362.91;105670;1259;59685;-70
2023/02/17 00:31:21;;;;;;;22.40;12.80;;;;;;;0.16;67.03;100360.02;105310;1260;59598;-70
2023/02/17 00:33:48;;;;;;;24.20;12.60;;;;;;;0.16;67.04;100353.81;105525;1261;65882;-71
2023/02/17 00:36:17;;;;;;;22.70;13.10;;;;;;;0.16;67.05;100348.77;105619;1257;60267;-72
2023/02/17 00:38:49;;;;;;;21.40;12.70;;;;;;;0.18;67.03;100345.25;105470;1256;74974;-73
2023/02/17 00:41:16;;;;;;;23.30;13.50;;;;;;;0.18;67.01;100341.76;105707;1259;59615;-72
2023/02/17 00:43:43;;;;;;;24.60;14.00;;;;;;;0.19;67.02;100341.05;105713;1254;59658;-72
2023/02/17 00:46:10;;;;;;;25.80;14.80;;;;;;;0.20;66.95;100339.65;105631;1254;65825;-72
2023/02/17 00:48:37;;;;;;;23.30;15.30;;;;;;;0.19;66.83;100335.17;105556;1259;59824;-72
2023/02/17 00:51:04;;;;;;;26.30;15.90;;;;;;;0.19;66.84;100330.67;105694;1254;65320;-73
2023/02/17 00:53:34;;;;;;;23.80;14.90;;;;;;;0.19;66.86;100329.63;105678;1258;59593;-74
2023/02/17 00:56:01;;;;;;;25.70;15.20;;;;;;;0.18;66.84;100324.82;105661;1254;59669;-73
2023/02/17 00:58:31;;;;;;;26.00;16.10;;;;;;;0.15;66.78;100322.15;105619;1258;65976;-73
2023/02/17 01:00:58;;;;;;;24.00;15.00;;;;;;;0.13;66.84;100318.77;105687;1254;59622;-73
2023/02/17 01:03:25;;;;;;;25.60;15.20;;;;;;;0.13;66.87;100315.69;105647;1254;64390;-73
2023/02/17 01:05:53;;;;;;;29.70;14.70;;;;;;;0.12;66.90;100312.07;105517;1255;59680;-72
2023/02/17 01:08:20;;;;;;;24.80;14.40;;;;;;;0.11;66.86;100306.23;105600;1254;59640;-72
2023/02/17 01:10:48;;;;;;;27.40;15.10;;;;;;;0.10;66.79;100300.73;105867;1254;65755;-73
2023/02/17 01:13:16;;;;;;;25.10;14.40;;;;;;;0.10;66.77;100297.44;105738;1257;60052;-74
2023/02/17 01:15:46;;;;;;;25.00;14.20;;;;;;;0.09;66.61;100293.98;105678;1254;65305;-74
2023/02/17 01:18:15;;;;;;;27.80;14.50;;;;;;;0.09;66.64;100292.96;105534;1254;59736;-73
2023/02/17 01:20:42;;;;;;;28.80;15.60;;;;;;;0.08;66.63;100290.05;105763;1253;59749;-74
2023/02/17 01:23:10;;;;;;;24.90;13.70;;;;;;;0.08;66.54;100287.62;105712;1259;65931;-73
2023/02/17 01:25:38;;;;;;;25.20;14.70;;;;;;;0.07;66.46;100287.83;105704;1258;59917;-72
2023/02/17 01:28:10;;;;;;;27.30;14.90;;;;;;;0.07;66.38;100292.69;105705;1255;65832;-75
2023/02/17 01:30:37;;;;;;;25.40;15.10;;;;;;;0.06;66.32;100289.23;105588;1254;60379;-73
2023/02/17 01:33:04;;;;;;;25.10;13.70;;;;;;;0.06;66.33;100285.28;106215;1259;60490;-73
2023/02/17 01:35:32;;;;;;;22.00;13.20;;;;;;;0.05;66.23;100285.33;105927;1254;66749;-72
2023/02/17 01:37:59;;;;;;;21.40;12.80;;;;;;;0.04;66.16;100281.58;105966;1254;60437;-77
2023/02/17 01:40:26;;;;;;;21.20;11.70;;;;;;;0.02;66.08;100276.78;106153;1259;65838;-73
2023/02/17 01:42:53;;;;;;;21.30;11.60;;;;;;;0.01;66.10;100275.96;106287;1258;60488;-72
2023/02/17 01:45:20;;;;;;;22.10;11.20;;;;;;;-0.03;66.08;100270.36;106430;1259;60381;-74
2023/02/17 01:47:48;;;;;;;22.20;12.10;;;;;;;-0.05;65.97;100268.89;105728;1255;66716;-74
2023/02/17 01:50:16;;;;;;;19.30;11.10;;;;;;;-0.07;66.04;100269.67;105867;1257;60422;-74
2023/02/17 01:52:42;;;;;;;17.50;10.90;;;;;;;-0.10;65.99;100266.81;106001;1254;65552;-72
2023/02/17 01:55:12;;;;;;;22.10;11.50;;;;;;;-0.11;65.99;100261.69;105946;1260;60511;-72
2023/02/17 01:57:41;;;;;;;15.20;10.40;;;;;;;-0.12;65.97;100260.49;105537;1259;60431;-71
2023/02/17 02:00:09;;;;;;;20.80;11.20;;;;;;;-0.13;65.93;100256.05;105741;1260;66366;-73
2023/02/17 02:02:39;;;;;;;17.90;10.80;;;;;;;-0.14;65.99;100253.47;105738;1254;60758;-74
2023/02/17 02:05:07;;;;;;;17.90;10.20;;;;;;;-0.13;65.97;100249.83;105689;1257;65477;-73
2023/02/17 02:07:36;;;;;;;21.30;10.70;;;;;;;-0.14;65.93;100246.04;105733;1260;60591;-73
2023/02/17 02:10:06;;;;;;;16.60;9.60;;;;;;;-0.13;65.85;100246.17;105895;1254;60508;-73
2023/02/17 02:12:36;;;;;;;16.20;9.60;;;;;;;-0.13;65.86;100244.45;105915;1255;66224;-73
2023/02/17 02:15:11;;;;;;;17.10;10.00;;;;;;;-0.13;65.80;100247.39;105805;1259;60369;-73
2023/02/17 02:17:44;;;;;;;19.30;9.60;;;;;;;-0.13;65.81;100247.91;105568;1260;65619;-73
2023/02/17 02:20:36;;;;;;;15.60;8.60;;;;;;;-0.13;65.72;100242.91;105734;1259;60541;-73
2023/02/17 02:23:16;;;;;;;13.70;8.20;;;;;;;-0.14;65.80;100238.77;105763;1254;60475;-73
